sensor_id;sensor_type;location;lat;lon;timestamp;temperature;humidity
6256;DHT22;3161;48.794;9.784;2023-05-07T00:00:22;14.40;99.90
6256;DHT22;3161;48.794;9.784;2023-05-07T00:02:50;14.40;99.90
6256;DHT22;3161;48.794;9.784;2023-05-07T00:05:19;14.30;99.90
6256;DHT22;3161;48.794;9.784;2023-05-07T00:07:47;14.30;99.90
6256;DHT22;3161;48.794;9.784;2023-05-07T00:10:15;14.30;99.90
6256;DHT22;3161;48.794;9.784;2023-05-07T00:12:42;14.20;99.90
6256;DHT22;3161;48.794;9.784;2023-05-07T00:15:10;14.20;99.90
6256;DHT22;3161;48.794;9.784;2023-05-07T00:17:38;14.20;99.90
6256;DHT22;3161;48.794;9.784;2023-05-07T00:20:06;14.10;99.90
6256;DHT22;3161;48.794;9.784;2023-05-07T00:22:33;14.10;99.90
6256;DHT22;3161;48.794;9.784;2023-05-07T00:25:01;14.10;99.90
6256;DHT22;3161;48.794;9.784;2023-05-07T00:27:28;14.10;99.90
6256;DHT22;3161;48.794;9.784;2023-05-07T00:29:56;14.10;99.90
6256;DHT22;3161;48.794;9.784;2023-05-07T00:32:23;14.10;99.90
6256;DHT22;3161;48.794;9.784;2023-05-07T00:34:51;14.10;99.90
6256;DHT22;3161;48.794;9.784;2023-05-07T00:37:19;14.00;99.90
6256;DHT22;3161;48.794;9.784;2023-05-07T00:39:46;14.00;99.90
6256;DHT22;3161;48.794;9.784;2023-05-07T00:42:14;14.00;99.90
6256;DHT22;3161;48.794;9.784;2023-05-07T00:44:42;14.00;99.90
6256;DHT22;3161;48.794;9.784;2023-05-07T00:47:10;13.90;99.90
6256;DHT22;3161;48.794;9.784;2023-05-07T00:49:41;13.90;99.90
6256;DHT22;3161;48.794;9.784;2023-05-07T00:52:13;13.90;99.90
6256;DHT22;3161;48.794;9.784;2023-05-07T00:54:39;13.90;99.90
6256;DHT22;3161;48.794;9.784;2023-05-07T00:57:08;13.80;99.90
6256;DHT22;3161;48.794;9.784;2023-05-07T00:59:37;13.90;99.90
6256;DHT22;3161;48.794;9.784;2023-05-07T01:02:07;13.90;99.90
6256;DHT22;3161;48.794;9.784;2023-05-07T01:04:35;13.90;99.90
6256;DHT22;3161;48.794;9.784;2023-05-07T01:07:03;13.90;99.90
6256;DHT22;3161;48.794;9.784;2023-05-07T01:09:32;13.90;99.90
6256;DHT22;3161;48.794;9.784;2023-05-07T01:12:02;13.90;99.90
6256;DHT22;3161;48.794;9.784;2023-05-07T01:14:31;13.80;99.90
6256;DHT22;3161;48.794;9.784;2023-05-07T01:16:59;13.80;99.90
6256;DHT22;3161;48.794;9.784;2023-05-07T01:19:29;13.80;99.90
6256;DHT22;3161;48.794;9.784;2023-05-07T01:22:03;13.70;99.90
6256;DHT22;3161;48.794;9.784;2023-05-07T01:24:32;13.70;99.90
6256;DHT22;3161;48.794;9.784;2023-05-07T01:27:00;13.70;99.90
6256;DHT22;3161;48.794;9.784;2023-05-07T01:29:28;13.60;99.90
6256;DHT22;3161;48.794;9.784;2023-05-07T01:32:00;13.60;99.90
6256;DHT22;3161;48.794;9.784;2023-05-07T01:34:30;13.60;99.90
6256;DHT22;3161;48.794;9.784;2023-05-07T01:36:59;13.60;99.90
6256;DHT22;3161;48.794;9.784;2023-05-07T01:39:29;13.50;99.90
6256;DHT22;3161;48.794;9.784;2023-05-07T01:41:56;13.50;99.90
6256;DHT22;3161;48.794;9.784;2023-05-07T01:44:26;13.50;99.90
6256;DHT22;3161;48.794;9.784;2023-05-07T01:46:54;13.50;99.90
6256;DHT22;3161;48.794;9.784;2023-05-07T01:49:22;13.50;99.90
6256;DHT22;3161;48.794;9.784;2023-05-07T01:51:50;13.50;99.90
6256;DHT22;3161;48.794;9.784;2023-05-07T01:54:18;13.40;99.90
6256;DHT22;3161;48.794;9.784;2023-05-07T01:56:47;13.40;99.90
6256;DHT22;3161;48.794;9.784;2023-05-07T01:59:15;13.40;99.90
6256;DHT22;3161;48.794;9.784;2023-05-07T02:01:42;13.40;99.90
6256;DHT22;3161;48.794;9.784;2023-05-07T02:04:10;13.40;99.90
6256;DHT22;3161;48.794;9.784;2023-05-07T02:06:37;13.30;99.90
6256;DHT22;3161;48.794;9.784;2023-05-07T02:09:05;13.30;99.90
6256;DHT22;3161;48.794;9.784;2023-05-07T02:11:33;13.30;99.90
6256;DHT22;3161;48.794;9.784;2023-05-07T02:14:00;13.30;99.90
6256;DHT22;3161;48.794;9.784;2023-05-07T02:16:28;13.30;99.90
6256;DHT22;3161;48.794;9.784;2023-05-07T02:18:55;13.30;99.90
6256;DHT22;3161;48.794;9.784;2023-05-07T02:21:25;13.30;99.90
6256;DHT22;3161;48.794;9.784;2023-05-07T02:23:52;13.20;99.90
6256;DHT22;3161;48.794;9.784;2023-05-07T02:26:20;13.20;99.90
6256;DHT22;3161;48.794;9.784;2023-05-07T02:28:47;13.20;99.90
6256;DHT22;3161;48.794;9.784;2023-05-07T02:31:15;13.20;99.90
6256;DHT22;3161;48.794;9.784;2023-05-07T02:33:42;13.20;99.90
6256;DHT22;3161;48.794;9.784;2023-05-07T02:36:12;13.10;99.90
6256;DHT22;3161;48.794;9.784;2023-05-07T02:38:39;13.10;99.90
6256;DHT22;3161;48.794;9.784;2023-05-07T02:41:07;13.10;99.90
6256;DHT22;3161;48.794;9.784;2023-05-07T02:43:34;13.10;99.90
6256;DHT22;3161;48.794;9.784;2023-05-07T02:46:06;13.00;99.90
6256;DHT22;3161;48.794;9.784;2023-05-07T02:48:34;13.00;99.90
6256;DHT22;3161;48.794;9.784;2023-05-07T02:51:03;13.00;99.90
6256;DHT22;3161;48.794;9.784;2023-05-07T02:53:30;13.00;99.90
6256;DHT22;3161;48.794;9.784;2023-05-07T02:56:01;12.90;99.90
6256;DHT22;3161;48.794;9.784;2023-05-07T02:58:29;12.90;99.90
6256;DHT22;3161;48.794;9.784;2023-05-07T03:00:56;12.90;99.90
6256;DHT22;3161;48.794;9.784;2023-05-07T03:03:24;12.80;99.90
6256;DHT22;3161;48.794;9.784;2023-05-07T03:05:51;12.80;99.90
6256;DHT22;3161;48.794;9.784;2023-05-07T03:08:19;12.80;99.90
6256;DHT22;3161;48.794;9.784;2023-05-07T03:10:47;12.80;99.90
6256;DHT22;3161;48.794;9.784;2023-05-07T03:13:14;12.80;99.90
6256;DHT22;3161;48.794;9.784;2023-05-07T03:15:42;12.80;99.90
6256;DHT22;3161;48.794;9.784;2023-05-07T03:18:10;12.80;99.90
6256;DHT22;3161;48.794;9.784;2023-05-07T03:20:37;12.80;99.90
6256;DHT22;3161;48.794;9.784;2023-05-07T03:23:05;12.80;99.90
6256;DHT22;3161;48.794;9.784;2023-05-07T03:25:32;12.70;99.90
6256;DHT22;3161;48.794;9.784;2023-05-07T03:28:00;12.70;99.90
6256;DHT22;3161;48.794;9.784;2023-05-07T03:30:27;12.70;99.90
6256;DHT22;3161;48.794;9.784;2023-05-07T03:32:55;12.60;99.90
6256;DHT22;3161;48.794;9.784;2023-05-07T03:35:23;12.60;99.90
6256;DHT22;3161;48.794;9.784;2023-05-07T03:37:50;12.60;99.90
6256;DHT22;3161;48.794;9.784;2023-05-07T03:40:18;12.50;99.90
6256;DHT22;3161;48.794;9.784;2023-05-07T03:42:46;12.50;99.90
6256;DHT22;3161;48.794;9.784;2023-05-07T03:45:13;12.50;99.90
6256;DHT22;3161;48.794;9.784;2023-05-07T03:47:42;12.40;99.90
6256;DHT22;3161;48.794;9.784;2023-05-07T03:50:10;12.40;99.90
6256;DHT22;3161;48.794;9.784;2023-05-07T03:52:37;12.40;99.90
6256;DHT22;3161;48.794;9.784;2023-05-07T03:55:05;12.40;99.90
6256;DHT22;3161;48.794;9.784;2023-05-07T03:57:33;12.30;99.90
6256;DHT22;3161;48.794;9.784;2023-05-07T04:00:00;12.30;99.90
6256;DHT22;3161;48.794;9.784;2023-05-07T04:02:28;12.30;99.90
6256;DHT22;3161;48.794;9.784;2023-05-07T04:04:56;12.30;99.90
6256;DHT22;3161;48.794;9.784;2023-05-07T04:07:23;12.30;99.90
6256;DHT22;3161;48.794;9.784;2023-05-07T04:09:51;12.30;99.90
6256;DHT22;3161;48.794;9.784;2023-05-07T04:12:18;12.30;99.90
6256;DHT22;3161;48.794;9.784;2023-05-07T04:14:46;12.30;99.90
6256;DHT22;3161;48.794;9.784;2023-05-07T04:17:14;12.30;99.90
6256;DHT22;3161;48.794;9.784;2023-05-07T04:19:41;12.30;99.90
6256;DHT22;3161;48.794;9.784;2023-05-07T04:22:10;12.30;99.90
6256;DHT22;3161;48.794;9.784;2023-05-07T04:24:38;12.30;99.90
6256;DHT22;3161;48.794;9.784;2023-05-07T04:27:06;12.30;99.90
6256;DHT22;3161;48.794;9.784;2023-05-07T04:29:33;12.20;99.90
6256;DHT22;3161;48.794;9.784;2023-05-07T04:32:01;12.20;99.90
6256;DHT22;3161;48.794;9.784;2023-05-07T04:34:29;12.20;99.90
6256;DHT22;3161;48.794;9.784;2023-05-07T04:36:58;12.20;99.90
6256;DHT22;3161;48.794;9.784;2023-05-07T04:39:27;12.20;99.90
6256;DHT22;3161;48.794;9.784;2023-05-07T04:41:54;12.20;99.90
6256;DHT22;3161;48.794;9.784;2023-05-07T04:44:22;12.30;99.90
6256;DHT22;3161;48.794;9.784;2023-05-07T04:46:49;12.30;99.90
6256;DHT22;3161;48.794;9.784;2023-05-07T04:49:17;12.30;99.90
6256;DHT22;3161;48.794;9.784;2023-05-07T04:51:44;12.30;99.90
6256;DHT22;3161;48.794;9.784;2023-05-07T05:00:03;12.50;99.90
6256;DHT22;3161;48.794;9.784;2023-05-07T05:02:30;12.50;99.90
6256;DHT22;3161;48.794;9.784;2023-05-07T05:04:58;12.60;99.90
6256;DHT22;3161;48.794;9.784;2023-05-07T05:07:26;12.60;99.90
6256;DHT22;3161;48.794;9.784;2023-05-07T05:09:54;12.70;99.90
6256;DHT22;3161;48.794;9.784;2023-05-07T05:12:22;12.70;99.90
6256;DHT22;3161;48.794;9.784;2023-05-07T05:14:49;12.80;99.90
6256;DHT22;3161;48.794;9.784;2023-05-07T05:17:17;12.80;99.90
6256;DHT22;3161;48.794;9.784;2023-05-07T05:19:44;12.90;99.90
6256;DHT22;3161;48.794;9.784;2023-05-07T05:22:12;12.90;99.90
6256;DHT22;3161;48.794;9.784;2023-05-07T05:24:39;13.00;99.90
6256;DHT22;3161;48.794;9.784;2023-05-07T05:27:07;13.00;99.90
6256;DHT22;3161;48.794;9.784;2023-05-07T05:29:34;13.00;99.90
6256;DHT22;3161;48.794;9.784;2023-05-07T05:32:02;13.00;99.90
6256;DHT22;3161;48.794;9.784;2023-05-07T05:34:30;13.00;99.90
6256;DHT22;3161;48.794;9.784;2023-05-07T05:36:58;13.10;99.90
6256;DHT22;3161;48.794;9.784;2023-05-07T05:39:26;13.10;99.90
6256;DHT22;3161;48.794;9.784;2023-05-07T05:41:53;13.20;99.90
6256;DHT22;3161;48.794;9.784;2023-05-07T05:44:21;13.20;99.90
6256;DHT22;3161;48.794;9.784;2023-05-07T05:46:48;13.30;99.90
6256;DHT22;3161;48.794;9.784;2023-05-07T05:49:16;13.40;99.90
6256;DHT22;3161;48.794;9.784;2023-05-07T05:51:44;13.40;99.90
6256;DHT22;3161;48.794;9.784;2023-05-07T05:54:11;13.40;99.90
6256;DHT22;3161;48.794;9.784;2023-05-07T05:56:40;13.60;99.90
6256;DHT22;3161;48.794;9.784;2023-05-07T05:59:08;13.70;99.90
6256;DHT22;3161;48.794;9.784;2023-05-07T06:01:35;13.80;99.90
6256;DHT22;3161;48.794;9.784;2023-05-07T06:04:03;14.00;99.90
6256;DHT22;3161;48.794;9.784;2023-05-07T06:06:31;14.00;99.90
6256;DHT22;3161;48.794;9.784;2023-05-07T06:08:59;14.20;99.90
6256;DHT22;3161;48.794;9.784;2023-05-07T06:11:26;14.30;99.90
6256;DHT22;3161;48.794;9.784;2023-05-07T06:13:54;14.50;99.90
6256;DHT22;3161;48.794;9.784;2023-05-07T06:16:21;14.70;99.90
6256;DHT22;3161;48.794;9.784;2023-05-07T06:18:49;14.90;99.90
6256;DHT22;3161;48.794;9.784;2023-05-07T06:21:16;15.00;99.90
6256;DHT22;3161;48.794;9.784;2023-05-07T06:23:44;15.20;99.90
6256;DHT22;3161;48.794;9.784;2023-05-07T06:26:13;15.40;99.90
6256;DHT22;3161;48.794;9.784;2023-05-07T06:28:40;15.60;99.90
6256;DHT22;3161;48.794;9.784;2023-05-07T06:31:18;15.90;99.90
6256;DHT22;3161;48.794;9.784;2023-05-07T06:33:49;16.00;99.90
6256;DHT22;3161;48.794;9.784;2023-05-07T06:36:17;16.30;99.90
6256;DHT22;3161;48.794;9.784;2023-05-07T06:38:44;16.50;99.90
6256;DHT22;3161;48.794;9.784;2023-05-07T06:41:12;16.70;99.90
6256;DHT22;3161;48.794;9.784;2023-05-07T06:43:39;16.90;99.90
6256;DHT22;3161;48.794;9.784;2023-05-07T06:46:07;17.20;99.90
6256;DHT22;3161;48.794;9.784;2023-05-07T06:48:34;17.40;99.90
6256;DHT22;3161;48.794;9.784;2023-05-07T06:51:04;17.60;99.90
6256;DHT22;3161;48.794;9.784;2023-05-07T06:53:31;17.70;99.90
6256;DHT22;3161;48.794;9.784;2023-05-07T06:55:59;17.80;99.90
6256;DHT22;3161;48.794;9.784;2023-05-07T06:58:26;17.90;99.90
6256;DHT22;3161;48.794;9.784;2023-05-07T07:00:54;18.00;99.90
6256;DHT22;3161;48.794;9.784;2023-05-07T07:03:21;18.10;99.90
6256;DHT22;3161;48.794;9.784;2023-05-07T07:05:53;18.40;99.90
6256;DHT22;3161;48.794;9.784;2023-05-07T07:08:22;18.90;99.90
6256;DHT22;3161;48.794;9.784;2023-05-07T07:10:49;19.30;99.90
6256;DHT22;3161;48.794;9.784;2023-05-07T07:13:17;19.70;99.90
6256;DHT22;3161;48.794;9.784;2023-05-07T07:15:45;20.10;99.90
6256;DHT22;3161;48.794;9.784;2023-05-07T07:18:13;20.40;99.90
6256;DHT22;3161;48.794;9.784;2023-05-07T07:20:41;20.50;99.90
6256;DHT22;3161;48.794;9.784;2023-05-07T07:23:08;20.80;99.90
6256;DHT22;3161;48.794;9.784;2023-05-07T07:25:36;20.80;99.90
6256;DHT22;3161;48.794;9.784;2023-05-07T07:28:04;20.90;99.90
6256;DHT22;3161;48.794;9.784;2023-05-07T07:30:31;21.00;99.90
6256;DHT22;3161;48.794;9.784;2023-05-07T07:32:59;21.20;99.90
6256;DHT22;3161;48.794;9.784;2023-05-07T07:35:29;21.40;99.90
6256;DHT22;3161;48.794;9.784;2023-05-07T07:37:56;21.60;99.90
6256;DHT22;3161;48.794;9.784;2023-05-07T07:40:24;21.80;99.90
6256;DHT22;3161;48.794;9.784;2023-05-07T07:42:53;21.80;99.90
6256;DHT22;3161;48.794;9.784;2023-05-07T07:45:21;21.70;99.90
6256;DHT22;3161;48.794;9.784;2023-05-07T07:47:48;21.60;99.90
6256;DHT22;3161;48.794;9.784;2023-05-07T07:50:16;21.60;99.90
6256;DHT22;3161;48.794;9.784;2023-05-07T07:52:44;21.60;99.90
6256;DHT22;3161;48.794;9.784;2023-05-07T07:55:12;21.70;99.90
6256;DHT22;3161;48.794;9.784;2023-05-07T07:57:41;21.90;99.90
6256;DHT22;3161;48.794;9.784;2023-05-07T08:00:09;22.40;99.90
6256;DHT22;3161;48.794;9.784;2023-05-07T08:02:37;23.00;99.90
6256;DHT22;3161;48.794;9.784;2023-05-07T08:05:05;23.60;99.90
6256;DHT22;3161;48.794;9.784;2023-05-07T08:07:33;24.20;99.90
6256;DHT22;3161;48.794;9.784;2023-05-07T08:10:00;24.80;99.90
6256;DHT22;3161;48.794;9.784;2023-05-07T08:12:29;25.20;99.90
6256;DHT22;3161;48.794;9.784;2023-05-07T08:14:56;25.60;99.90
6256;DHT22;3161;48.794;9.784;2023-05-07T08:17:24;25.90;99.80
6256;DHT22;3161;48.794;9.784;2023-05-07T08:19:51;26.20;99.90
6256;DHT22;3161;48.794;9.784;2023-05-07T08:22:19;26.60;97.50
6256;DHT22;3161;48.794;9.784;2023-05-07T08:24:47;26.90;95.90
6256;DHT22;3161;48.794;9.784;2023-05-07T08:27:14;27.20;96.60
6256;DHT22;3161;48.794;9.784;2023-05-07T08:29:42;27.40;94.80
6256;DHT22;3161;48.794;9.784;2023-05-07T08:32:11;27.50;93.60
6256;DHT22;3161;48.794;9.784;2023-05-07T08:34:39;27.60;94.20
6256;DHT22;3161;48.794;9.784;2023-05-07T08:37:07;27.70;93.30
6256;DHT22;3161;48.794;9.784;2023-05-07T08:39:34;27.90;91.00
6256;DHT22;3161;48.794;9.784;2023-05-07T08:42:03;28.00;91.10
6256;DHT22;3161;48.794;9.784;2023-05-07T08:44:34;27.70;88.80
6256;DHT22;3161;48.794;9.784;2023-05-07T08:47:02;27.50;91.60
6256;DHT22;3161;48.794;9.784;2023-05-07T08:49:31;27.20;91.70
6256;DHT22;3161;48.794;9.784;2023-05-07T08:51:59;27.00;91.60
6256;DHT22;3161;48.794;9.784;2023-05-07T08:54:26;26.80;92.90
6256;DHT22;3161;48.794;9.784;2023-05-07T08:56:55;26.60;91.90
6256;DHT22;3161;48.794;9.784;2023-05-07T08:59:23;26.50;92.80
6256;DHT22;3161;48.794;9.784;2023-05-07T09:01:50;26.40;93.50
6256;DHT22;3161;48.794;9.784;2023-05-07T09:04:18;26.30;92.70
6256;DHT22;3161;48.794;9.784;2023-05-07T09:06:46;26.20;91.70
6256;DHT22;3161;48.794;9.784;2023-05-07T09:09:17;26.20;90.60
6256;DHT22;3161;48.794;9.784;2023-05-07T09:11:47;26.10;89.40
6256;DHT22;3161;48.794;9.784;2023-05-07T09:14:15;26.00;84.90
6256;DHT22;3161;48.794;9.784;2023-05-07T09:16:42;25.90;87.70
6256;DHT22;3161;48.794;9.784;2023-05-07T09:19:10;25.80;89.20
6256;DHT22;3161;48.794;9.784;2023-05-07T09:21:37;25.70;90.50
6256;DHT22;3161;48.794;9.784;2023-05-07T09:24:06;25.80;91.50
6256;DHT22;3161;48.794;9.784;2023-05-07T09:26:34;25.90;91.20
6256;DHT22;3161;48.794;9.784;2023-05-07T09:29:02;26.00;91.60
6256;DHT22;3161;48.794;9.784;2023-05-07T09:31:29;26.20;91.00
6256;DHT22;3161;48.794;9.784;2023-05-07T09:33:57;26.30;91.10
6256;DHT22;3161;48.794;9.784;2023-05-07T09:36:25;26.40;88.10
6256;DHT22;3161;48.794;9.784;2023-05-07T09:38:54;26.40;86.40
6256;DHT22;3161;48.794;9.784;2023-05-07T09:41:23;26.40;85.00
6256;DHT22;3161;48.794;9.784;2023-05-07T09:43:53;26.20;82.40
6256;DHT22;3161;48.794;9.784;2023-05-07T09:46:25;25.90;82.00
6256;DHT22;3161;48.794;9.784;2023-05-07T09:48:56;25.80;82.20
6256;DHT22;3161;48.794;9.784;2023-05-07T09:51:45;25.70;83.40
6256;DHT22;3161;48.794;9.784;2023-05-07T09:54:11;25.60;80.70
6256;DHT22;3161;48.794;9.784;2023-05-07T09:56:39;25.60;83.70
6256;DHT22;3161;48.794;9.784;2023-05-07T09:59:15;25.70;80.00
6256;DHT22;3161;48.794;9.784;2023-05-07T10:01:42;25.70;84.10
6256;DHT22;3161;48.794;9.784;2023-05-07T10:04:11;25.90;82.10
6256;DHT22;3161;48.794;9.784;2023-05-07T10:06:39;26.00;82.40
6256;DHT22;3161;48.794;9.784;2023-05-07T10:09:09;26.00;82.70
6256;DHT22;3161;48.794;9.784;2023-05-07T10:11:37;26.10;79.90
6256;DHT22;3161;48.794;9.784;2023-05-07T10:14:06;26.00;79.30
6256;DHT22;3161;48.794;9.784;2023-05-07T10:16:35;25.90;80.70
6256;DHT22;3161;48.794;9.784;2023-05-07T10:19:05;25.80;82.30
6256;DHT22;3161;48.794;9.784;2023-05-07T10:21:35;25.80;83.10
6256;DHT22;3161;48.794;9.784;2023-05-07T10:24:09;25.70;85.60
6256;DHT22;3161;48.794;9.784;2023-05-07T10:26:43;25.70;82.80
6256;DHT22;3161;48.794;9.784;2023-05-07T10:29:23;25.60;83.00
6256;DHT22;3161;48.794;9.784;2023-05-07T10:31:59;25.60;87.80
6256;DHT22;3161;48.794;9.784;2023-05-07T10:34:29;25.50;82.80
6256;DHT22;3161;48.794;9.784;2023-05-07T10:36:57;25.30;85.70
6256;DHT22;3161;48.794;9.784;2023-05-07T10:39:25;25.20;85.20
6256;DHT22;3161;48.794;9.784;2023-05-07T10:41:52;25.20;86.40
6256;DHT22;3161;48.794;9.784;2023-05-07T10:44:29;25.10;84.90
6256;DHT22;3161;48.794;9.784;2023-05-07T10:47:08;25.00;85.10
6256;DHT22;3161;48.794;9.784;2023-05-07T10:52:18;24.90;86.40
6256;DHT22;3161;48.794;9.784;2023-05-07T10:54:46;24.90;88.00
6256;DHT22;3161;48.794;9.784;2023-05-07T11:05:33;24.80;90.10
6256;DHT22;3161;48.794;9.784;2023-05-07T11:08:02;24.90;89.30
6256;DHT22;3161;48.794;9.784;2023-05-07T11:13:45;25.20;86.30
6256;DHT22;3161;48.794;9.784;2023-05-07T11:18:48;25.50;86.50
6256;DHT22;3161;48.794;9.784;2023-05-07T11:21:33;25.60;86.70
6256;DHT22;3161;48.794;9.784;2023-05-07T11:24:01;25.70;84.00
6256;DHT22;3161;48.794;9.784;2023-05-07T11:26:41;25.70;84.70
6256;DHT22;3161;48.794;9.784;2023-05-07T11:29:00;25.70;85.10
6256;DHT22;3161;48.794;9.784;2023-05-07T11:31:28;25.70;80.40
6256;DHT22;3161;48.794;9.784;2023-05-07T11:33:56;25.70;82.10
6256;DHT22;3161;48.794;9.784;2023-05-07T11:36:25;25.70;81.70
6256;DHT22;3161;48.794;9.784;2023-05-07T11:38:53;25.70;81.70
6256;DHT22;3161;48.794;9.784;2023-05-07T11:41:21;25.60;80.60
6256;DHT22;3161;48.794;9.784;2023-05-07T11:43:56;25.50;78.00
6256;DHT22;3161;48.794;9.784;2023-05-07T11:46:24;25.50;78.50
6256;DHT22;3161;48.794;9.784;2023-05-07T11:48:52;25.50;79.40
6256;DHT22;3161;48.794;9.784;2023-05-07T11:51:21;25.40;81.60
6256;DHT22;3161;48.794;9.784;2023-05-07T11:53:50;25.40;79.60
6256;DHT22;3161;48.794;9.784;2023-05-07T11:56:18;25.50;82.90
6256;DHT22;3161;48.794;9.784;2023-05-07T11:58:47;25.70;81.60
6256;DHT22;3161;48.794;9.784;2023-05-07T12:01:16;25.90;81.00
6256;DHT22;3161;48.794;9.784;2023-05-07T12:03:44;26.00;81.10
6256;DHT22;3161;48.794;9.784;2023-05-07T12:06:15;26.00;77.80
6256;DHT22;3161;48.794;9.784;2023-05-07T12:08:43;26.10;80.80
6256;DHT22;3161;48.794;9.784;2023-05-07T12:11:16;26.20;79.80
6256;DHT22;3161;48.794;9.784;2023-05-07T12:13:44;26.30;81.40
6256;DHT22;3161;48.794;9.784;2023-05-07T12:16:12;26.50;79.10
6256;DHT22;3161;48.794;9.784;2023-05-07T12:18:41;26.70;78.80
6256;DHT22;3161;48.794;9.784;2023-05-07T12:21:10;26.90;75.30
6256;DHT22;3161;48.794;9.784;2023-05-07T12:23:38;26.90;75.10
6256;DHT22;3161;48.794;9.784;2023-05-07T12:26:06;26.80;74.60
6256;DHT22;3161;48.794;9.784;2023-05-07T12:28:38;26.80;73.40
6256;DHT22;3161;48.794;9.784;2023-05-07T12:31:06;26.80;73.40
6256;DHT22;3161;48.794;9.784;2023-05-07T12:33:35;26.70;73.70
6256;DHT22;3161;48.794;9.784;2023-05-07T12:36:11;26.60;73.10
6256;DHT22;3161;48.794;9.784;2023-05-07T12:38:38;26.50;74.50
6256;DHT22;3161;48.794;9.784;2023-05-07T12:41:09;26.40;76.30
6256;DHT22;3161;48.794;9.784;2023-05-07T12:43:37;26.40;75.80
6256;DHT22;3161;48.794;9.784;2023-05-07T12:46:07;26.30;74.10
6256;DHT22;3161;48.794;9.784;2023-05-07T12:48:37;26.20;73.70
6256;DHT22;3161;48.794;9.784;2023-05-07T12:51:05;26.00;77.00
6256;DHT22;3161;48.794;9.784;2023-05-07T12:53:39;26.00;76.30
6256;DHT22;3161;48.794;9.784;2023-05-07T12:56:06;25.90;76.70
6256;DHT22;3161;48.794;9.784;2023-05-07T12:58:34;25.70;76.90
6256;DHT22;3161;48.794;9.784;2023-05-07T13:01:04;25.60;78.50
6256;DHT22;3161;48.794;9.784;2023-05-07T13:03:34;25.50;76.70
6256;DHT22;3161;48.794;9.784;2023-05-07T13:06:04;25.30;76.80
6256;DHT22;3161;48.794;9.784;2023-05-07T13:08:37;25.20;77.60
6256;DHT22;3161;48.794;9.784;2023-05-07T13:11:08;25.10;76.00
6256;DHT22;3161;48.794;9.784;2023-05-07T13:13:38;25.00;78.20
6256;DHT22;3161;48.794;9.784;2023-05-07T13:16:08;24.90;78.70
6256;DHT22;3161;48.794;9.784;2023-05-07T13:18:38;24.80;80.30
6256;DHT22;3161;48.794;9.784;2023-05-07T13:21:06;24.70;79.50
6256;DHT22;3161;48.794;9.784;2023-05-07T13:23:34;24.60;77.40
6256;DHT22;3161;48.794;9.784;2023-05-07T13:26:02;24.50;77.80
6256;DHT22;3161;48.794;9.784;2023-05-07T13:28:29;24.50;79.50
6256;DHT22;3161;48.794;9.784;2023-05-07T13:30:57;24.40;79.10
6256;DHT22;3161;48.794;9.784;2023-05-07T13:33:24;24.30;81.30
6256;DHT22;3161;48.794;9.784;2023-05-07T13:35:52;24.20;82.00
6256;DHT22;3161;48.794;9.784;2023-05-07T13:38:19;24.20;81.30
6256;DHT22;3161;48.794;9.784;2023-05-07T13:40:47;24.10;81.80
6256;DHT22;3161;48.794;9.784;2023-05-07T13:43:14;24.10;80.00
6256;DHT22;3161;48.794;9.784;2023-05-07T13:45:44;24.00;83.70
6256;DHT22;3161;48.794;9.784;2023-05-07T13:48:11;23.90;84.20
6256;DHT22;3161;48.794;9.784;2023-05-07T13:53:34;23.80;84.20
6256;DHT22;3161;48.794;9.784;2023-05-07T13:56:02;23.80;86.50
6256;DHT22;3161;48.794;9.784;2023-05-07T13:58:31;23.70;88.60
6256;DHT22;3161;48.794;9.784;2023-05-07T14:00:58;23.60;87.90
6256;DHT22;3161;48.794;9.784;2023-05-07T14:03:26;23.60;87.40
6256;DHT22;3161;48.794;9.784;2023-05-07T14:05:53;23.60;88.50
6256;DHT22;3161;48.794;9.784;2023-05-07T14:08:22;23.50;87.60
6256;DHT22;3161;48.794;9.784;2023-05-07T14:10:49;23.50;87.90
6256;DHT22;3161;48.794;9.784;2023-05-07T14:13:17;23.50;90.10
6256;DHT22;3161;48.794;9.784;2023-05-07T14:15:44;23.40;90.10
6256;DHT22;3161;48.794;9.784;2023-05-07T14:18:13;23.30;90.00
6256;DHT22;3161;48.794;9.784;2023-05-07T14:20:41;23.30;90.80
6256;DHT22;3161;48.794;9.784;2023-05-07T14:23:10;23.30;88.50
6256;DHT22;3161;48.794;9.784;2023-05-07T14:25:37;23.30;93.30
6256;DHT22;3161;48.794;9.784;2023-05-07T14:28:05;23.30;92.00
6256;DHT22;3161;48.794;9.784;2023-05-07T14:30:33;23.20;91.90
6256;DHT22;3161;48.794;9.784;2023-05-07T14:33:01;23.20;91.50
6256;DHT22;3161;48.794;9.784;2023-05-07T14:35:29;23.20;90.50
6256;DHT22;3161;48.794;9.784;2023-05-07T14:37:56;23.10;91.10
6256;DHT22;3161;48.794;9.784;2023-05-07T14:40:24;23.10;91.70
6256;DHT22;3161;48.794;9.784;2023-05-07T14:42:51;23.00;90.20
6256;DHT22;3161;48.794;9.784;2023-05-07T14:45:20;22.90;90.20
6256;DHT22;3161;48.794;9.784;2023-05-07T14:47:48;22.80;91.10
6256;DHT22;3161;48.794;9.784;2023-05-07T14:50:15;22.70;90.70
6256;DHT22;3161;48.794;9.784;2023-05-07T14:52:43;22.70;90.20
6256;DHT22;3161;48.794;9.784;2023-05-07T14:55:11;22.60;90.40
6256;DHT22;3161;48.794;9.784;2023-05-07T14:57:39;22.50;90.90
6256;DHT22;3161;48.794;9.784;2023-05-07T15:00:07;22.30;91.90
6256;DHT22;3161;48.794;9.784;2023-05-07T15:02:36;22.20;93.40
6256;DHT22;3161;48.794;9.784;2023-05-07T15:05:04;22.10;92.60
6256;DHT22;3161;48.794;9.784;2023-05-07T15:07:32;22.00;92.60
6256;DHT22;3161;48.794;9.784;2023-05-07T15:10:01;21.80;92.90
6256;DHT22;3161;48.794;9.784;2023-05-07T15:12:28;21.70;93.70
6256;DHT22;3161;48.794;9.784;2023-05-07T15:14:56;21.50;94.30
6256;DHT22;3161;48.794;9.784;2023-05-07T15:17:23;21.30;94.80
6256;DHT22;3161;48.794;9.784;2023-05-07T15:19:51;21.10;94.90
6256;DHT22;3161;48.794;9.784;2023-05-07T15:22:18;20.90;95.30
6256;DHT22;3161;48.794;9.784;2023-05-07T15:24:48;20.80;94.80
6256;DHT22;3161;48.794;9.784;2023-05-07T15:27:15;20.70;95.10
6256;DHT22;3161;48.794;9.784;2023-05-07T15:29:43;20.60;93.90
6256;DHT22;3161;48.794;9.784;2023-05-07T15:32:11;20.50;94.10
6256;DHT22;3161;48.794;9.784;2023-05-07T15:34:39;20.30;94.50
6256;DHT22;3161;48.794;9.784;2023-05-07T15:37:07;20.20;94.60
6256;DHT22;3161;48.794;9.784;2023-05-07T15:39:35;20.10;95.00
6256;DHT22;3161;48.794;9.784;2023-05-07T15:42:02;20.00;95.80
6256;DHT22;3161;48.794;9.784;2023-05-07T15:44:30;20.00;96.50
6256;DHT22;3161;48.794;9.784;2023-05-07T15:47:00;19.90;97.10
6256;DHT22;3161;48.794;9.784;2023-05-07T15:49:27;19.90;97.40
6256;DHT22;3161;48.794;9.784;2023-05-07T15:51:55;19.90;97.60
6256;DHT22;3161;48.794;9.784;2023-05-07T15:54:23;19.90;98.40
6256;DHT22;3161;48.794;9.784;2023-05-07T15:56:51;19.90;97.80
6256;DHT22;3161;48.794;9.784;2023-05-07T15:59:18;19.80;98.20
6256;DHT22;3161;48.794;9.784;2023-05-07T16:01:46;19.80;99.10
6256;DHT22;3161;48.794;9.784;2023-05-07T16:04:13;19.80;99.10
6256;DHT22;3161;48.794;9.784;2023-05-07T16:06:41;19.80;99.90
6256;DHT22;3161;48.794;9.784;2023-05-07T16:09:10;19.80;99.90
6256;DHT22;3161;48.794;9.784;2023-05-07T16:11:37;19.70;99.90
6256;DHT22;3161;48.794;9.784;2023-05-07T16:14:05;19.60;99.90
6256;DHT22;3161;48.794;9.784;2023-05-07T16:16:33;19.50;99.90
6256;DHT22;3161;48.794;9.784;2023-05-07T16:19:01;19.40;99.90
6256;DHT22;3161;48.794;9.784;2023-05-07T16:21:28;19.30;99.90
6256;DHT22;3161;48.794;9.784;2023-05-07T16:23:56;19.20;99.90
6256;DHT22;3161;48.794;9.784;2023-05-07T16:26:24;19.10;99.90
6256;DHT22;3161;48.794;9.784;2023-05-07T16:28:51;19.00;99.90
6256;DHT22;3161;48.794;9.784;2023-05-07T16:31:19;19.00;99.90
6256;DHT22;3161;48.794;9.784;2023-05-07T16:33:47;18.90;99.90